Decoded Metar for KCCA ( in _UNIDENTIFIED) (IATA:N/A) | Meteo·Mobile Aviation Weather
aviador You're here:

KCCA Decoded Metar

in _UNIDENTIFIED
Report Time2019-05-25 22:55:00
UTC Time2019-05-25 22:53:40
Flight Rules vfr VFR
WindCalm
Visibility9999 m
Phenomena:N/A
Clouds:N/A
Expected CloudBase > 4,400 ft AGL from Temp-Dew spread
CeilingNone
Temp30°C (ISA +16)
Dew Point19°C (52% RH)
Heat Index31.4°C
QNH1018 hPa
Density Alt2,474 ft
Elevation515 ft
Report Wrong Elevation
Raw Report
KCCA 252255Z AUTO 00000KT 10SM CLR 30/19 A3005 RMK AO2=

Extra information for KCCA:More info

Metar Taf Metar & Taf Last 4 Metars F.Rules Stats Wind Profile Meteogram Temp Stats Metar ALERT Operation Metar Decoded Social comments